sensor_id;sensor_type;location;lat;lon;timestamp;P1;durP1;ratioP1;P2;durP2;ratioP2
21438;SDS011;10880;50.302;18.736;2023-05-20T00:03:18;8.70;;;6.37;;
21438;SDS011;10880;50.302;18.736;2023-05-20T00:09:23;5.53;;;4.83;;
21438;SDS011;10880;50.302;18.736;2023-05-20T00:15:08;9.17;;;6.93;;
21438;SDS011;10880;50.302;18.736;2023-05-20T00:18:27;11.37;;;8.27;;
21438;SDS011;10880;50.302;18.736;2023-05-20T00:27:32;7.67;;;5.60;;
21438;SDS011;10880;50.302;18.736;2023-05-20T00:29:59;7.60;;;5.60;;
21438;SDS011;10880;50.302;18.736;2023-05-20T00:32:25;5.70;;;4.90;;
21438;SDS011;10880;50.302;18.736;2023-05-20T00:35:24;6.77;;;4.57;;
21438;SDS011;10880;50.302;18.736;2023-05-20T00:37:54;7.93;;;5.57;;
21438;SDS011;10880;50.302;18.736;2023-05-20T00:40:31;6.70;;;5.30;;
21438;SDS011;10880;50.302;18.736;2023-05-20T00:42:57;8.43;;;5.90;;
21438;SDS011;10880;50.302;18.736;2023-05-20T00:45:23;6.80;;;5.00;;
21438;SDS011;10880;50.302;18.736;2023-05-20T00:47:51;6.13;;;5.27;;
21438;SDS011;10880;50.302;18.736;2023-05-20T00:50:18;6.50;;;5.07;;
21438;SDS011;10880;50.302;18.736;2023-05-20T00:52:48;7.03;;;5.23;;
21438;SDS011;10880;50.302;18.736;2023-05-20T00:55:37;7.47;;;6.00;;
21438;SDS011;10880;50.302;18.736;2023-05-20T01:07:45;7.40;;;5.97;;
21438;SDS011;10880;50.302;18.736;2023-05-20T01:17:49;8.20;;;6.17;;
21438;SDS011;10880;50.302;18.736;2023-05-20T01:20:22;7.70;;;5.63;;
21438;SDS011;10880;50.302;18.736;2023-05-20T01:22:55;10.40;;;8.13;;
21438;SDS011;10880;50.302;18.736;2023-05-20T01:28:32;9.20;;;6.87;;
21438;SDS011;10880;50.302;18.736;2023-05-20T01:40:24;7.77;;;6.23;;
21438;SDS011;10880;50.302;18.736;2023-05-20T01:45:59;8.27;;;6.50;;
21438;SDS011;10880;50.302;18.736;2023-05-20T01:48:32;7.70;;;5.90;;
21438;SDS011;10880;50.302;18.736;2023-05-20T01:51:08;12.90;;;7.87;;
21438;SDS011;10880;50.302;18.736;2023-05-20T01:56:38;8.97;;;6.77;;
21438;SDS011;10880;50.302;18.736;2023-05-20T01:59:17;7.87;;;5.90;;
21438;SDS011;10880;50.302;18.736;2023-05-20T02:04:21;6.00;;;4.77;;
21438;SDS011;10880;50.302;18.736;2023-05-20T02:07:40;8.40;;;6.40;;
21438;SDS011;10880;50.302;18.736;2023-05-20T02:10:56;5.43;;;4.60;;
21438;SDS011;10880;50.302;18.736;2023-05-20T02:14:30;8.13;;;5.83;;
21438;SDS011;10880;50.302;18.736;2023-05-20T02:16:56;7.43;;;5.50;;
21438;SDS011;10880;50.302;18.736;2023-05-20T02:25:34;8.63;;;6.17;;
21438;SDS011;10880;50.302;18.736;2023-05-20T02:31:35;10.47;;;7.67;;
21438;SDS011;10880;50.302;18.736;2023-05-20T02:42:14;7.23;;;5.53;;
21438;SDS011;10880;50.302;18.736;2023-05-20T02:44:42;8.57;;;6.47;;
21438;SDS011;10880;50.302;18.736;2023-05-20T02:47:08;7.93;;;6.03;;
21438;SDS011;10880;50.302;18.736;2023-05-20T02:49:58;7.87;;;5.60;;
21438;SDS011;10880;50.302;18.736;2023-05-20T02:53:19;7.23;;;5.10;;
21438;SDS011;10880;50.302;18.736;2023-05-20T03:00:12;9.23;;;6.97;;
21438;SDS011;10880;50.302;18.736;2023-05-20T03:02:38;9.50;;;6.77;;
21438;SDS011;10880;50.302;18.736;2023-05-20T03:16:19;8.67;;;6.33;;
21438;SDS011;10880;50.302;18.736;2023-05-20T03:25:05;10.87;;;7.13;;
21438;SDS011;10880;50.302;18.736;2023-05-20T03:27:31;8.87;;;6.83;;
21438;SDS011;10880;50.302;18.736;2023-05-20T03:29:58;12.67;;;9.07;;
21438;SDS011;10880;50.302;18.736;2023-05-20T03:32:28;8.77;;;7.10;;
21438;SDS011;10880;50.302;18.736;2023-05-20T03:34:54;11.30;;;7.47;;
21438;SDS011;10880;50.302;18.736;2023-05-20T03:40:23;9.03;;;5.73;;
21438;SDS011;10880;50.302;18.736;2023-05-20T03:43:08;9.20;;;6.27;;
21438;SDS011;10880;50.302;18.736;2023-05-20T03:45:35;7.60;;;5.60;;
21438;SDS011;10880;50.302;18.736;2023-05-20T03:48:05;5.43;;;4.33;;
21438;SDS011;10880;50.302;18.736;2023-05-20T04:00:41;6.53;;;5.30;;
21438;SDS011;10880;50.302;18.736;2023-05-20T04:03:17;6.63;;;5.33;;
21438;SDS011;10880;50.302;18.736;2023-05-20T04:05:44;5.83;;;4.83;;
21438;SDS011;10880;50.302;18.736;2023-05-20T04:08:52;4.87;;;4.20;;
21438;SDS011;10880;50.302;18.736;2023-05-20T04:11:20;4.67;;;4.10;;
21438;SDS011;10880;50.302;18.736;2023-05-20T04:13:52;5.17;;;4.37;;
21438;SDS011;10880;50.302;18.736;2023-05-20T04:16:22;7.13;;;5.03;;
21438;SDS011;10880;50.302;18.736;2023-05-20T04:22:24;6.00;;;5.00;;
21438;SDS011;10880;50.302;18.736;2023-05-20T04:24:53;4.47;;;3.93;;
21438;SDS011;10880;50.302;18.736;2023-05-20T04:27:20;4.00;;;3.60;;
21438;SDS011;10880;50.302;18.736;2023-05-20T04:32:55;4.53;;;4.13;;
21438;SDS011;10880;50.302;18.736;2023-05-20T04:35:23;5.40;;;4.10;;
21438;SDS011;10880;50.302;18.736;2023-05-20T04:37:58;4.63;;;4.07;;
21438;SDS011;10880;50.302;18.736;2023-05-20T04:40:40;5.40;;;4.53;;
21438;SDS011;10880;50.302;18.736;2023-05-20T04:43:12;3.87;;;3.50;;
21438;SDS011;10880;50.302;18.736;2023-05-20T04:48:34;5.87;;;4.37;;
21438;SDS011;10880;50.302;18.736;2023-05-20T04:51:10;4.63;;;3.70;;
21438;SDS011;10880;50.302;18.736;2023-05-20T04:53:51;5.53;;;3.97;;
21438;SDS011;10880;50.302;18.736;2023-05-20T04:56:17;4.33;;;3.83;;
21438;SDS011;10880;50.302;18.736;2023-05-20T04:58:45;4.47;;;3.73;;
21438;SDS011;10880;50.302;18.736;2023-05-20T05:01:12;5.57;;;3.50;;
21438;SDS011;10880;50.302;18.736;2023-05-20T05:07:30;2.67;;;2.47;;
21438;SDS011;10880;50.302;18.736;2023-05-20T05:09:56;2.80;;;2.60;;
21438;SDS011;10880;50.302;18.736;2023-05-20T05:12:24;2.87;;;2.67;;
21438;SDS011;10880;50.302;18.736;2023-05-20T05:17:51;3.20;;;2.67;;
21438;SDS011;10880;50.302;18.736;2023-05-20T05:20:18;2.73;;;2.53;;
21438;SDS011;10880;50.302;18.736;2023-05-20T05:22:54;2.90;;;2.70;;
21438;SDS011;10880;50.302;18.736;2023-05-20T05:29:00;3.50;;;3.13;;
21438;SDS011;10880;50.302;18.736;2023-05-20T05:34:25;3.03;;;2.73;;
21438;SDS011;10880;50.302;18.736;2023-05-20T05:36:52;3.30;;;3.00;;
21438;SDS011;10880;50.302;18.736;2023-05-20T05:39:18;2.90;;;2.70;;
21438;SDS011;10880;50.302;18.736;2023-05-20T05:41:45;3.53;;;2.90;;
21438;SDS011;10880;50.302;18.736;2023-05-20T05:44:12;2.60;;;2.40;;
21438;SDS011;10880;50.302;18.736;2023-05-20T05:46:40;3.30;;;2.87;;
21438;SDS011;10880;50.302;18.736;2023-05-20T05:49:06;2.87;;;2.67;;
21438;SDS011;10880;50.302;18.736;2023-05-20T05:51:38;2.97;;;2.67;;
21438;SDS011;10880;50.302;18.736;2023-05-20T05:54:04;2.60;;;2.40;;
21438;SDS011;10880;50.302;18.736;2023-05-20T05:56:30;3.00;;;2.70;;
21438;SDS011;10880;50.302;18.736;2023-05-20T05:59:14;3.50;;;2.83;;
21438;SDS011;10880;50.302;18.736;2023-05-20T06:01:45;3.10;;;2.73;;
21438;SDS011;10880;50.302;18.736;2023-05-20T06:04:11;2.93;;;2.67;;
21438;SDS011;10880;50.302;18.736;2023-05-20T06:06:38;3.80;;;3.40;;
21438;SDS011;10880;50.302;18.736;2023-05-20T06:09:05;3.30;;;3.00;;
21438;SDS011;10880;50.302;18.736;2023-05-20T06:11:33;3.90;;;3.30;;
21438;SDS011;10880;50.302;18.736;2023-05-20T06:14:00;3.60;;;3.17;;
21438;SDS011;10880;50.302;18.736;2023-05-20T06:16:33;3.40;;;3.10;;
21438;SDS011;10880;50.302;18.736;2023-05-20T06:18:59;3.20;;;2.90;;
21438;SDS011;10880;50.302;18.736;2023-05-20T06:21:26;3.70;;;3.37;;
21438;SDS011;10880;50.302;18.736;2023-05-20T06:23:55;3.13;;;2.83;;
21438;SDS011;10880;50.302;18.736;2023-05-20T06:26:35;3.13;;;2.83;;
21438;SDS011;10880;50.302;18.736;2023-05-20T06:29:02;3.10;;;2.80;;
21438;SDS011;10880;50.302;18.736;2023-05-20T06:31:31;5.90;;;5.10;;
21438;SDS011;10880;50.302;18.736;2023-05-20T06:34:01;6.40;;;4.93;;
21438;SDS011;10880;50.302;18.736;2023-05-20T06:36:27;4.20;;;3.80;;
21438;SDS011;10880;50.302;18.736;2023-05-20T06:38:53;5.37;;;4.13;;
21438;SDS011;10880;50.302;18.736;2023-05-20T06:41:19;4.33;;;3.90;;
21438;SDS011;10880;50.302;18.736;2023-05-20T06:43:50;3.80;;;3.40;;
21438;SDS011;10880;50.302;18.736;2023-05-20T06:46:48;3.90;;;3.50;;
21438;SDS011;10880;50.302;18.736;2023-05-20T06:49:15;3.30;;;3.00;;
21438;SDS011;10880;50.302;18.736;2023-05-20T06:51:41;4.20;;;3.50;;
21438;SDS011;10880;50.302;18.736;2023-05-20T06:54:08;5.43;;;3.80;;
21438;SDS011;10880;50.302;18.736;2023-05-20T06:56:35;5.00;;;4.20;;
21438;SDS011;10880;50.302;18.736;2023-05-20T06:59:03;5.33;;;3.70;;
21438;SDS011;10880;50.302;18.736;2023-05-20T07:01:36;5.57;;;4.60;;
21438;SDS011;10880;50.302;18.736;2023-05-20T07:04:03;5.47;;;3.87;;
21438;SDS011;10880;50.302;18.736;2023-05-20T07:06:31;4.30;;;3.90;;
21438;SDS011;10880;50.302;18.736;2023-05-20T07:09:02;4.57;;;3.93;;
21438;SDS011;10880;50.302;18.736;2023-05-20T07:11:28;4.97;;;4.47;;
21438;SDS011;10880;50.302;18.736;2023-05-20T07:13:54;5.13;;;4.63;;
21438;SDS011;10880;50.302;18.736;2023-05-20T07:16:23;5.90;;;5.23;;
21438;SDS011;10880;50.302;18.736;2023-05-20T07:18:52;5.73;;;5.00;;
21438;SDS011;10880;50.302;18.736;2023-05-20T07:21:26;5.73;;;4.83;;
21438;SDS011;10880;50.302;18.736;2023-05-20T07:24:11;7.43;;;5.30;;
21438;SDS011;10880;50.302;18.736;2023-05-20T07:26:37;5.17;;;4.67;;
21438;SDS011;10880;50.302;18.736;2023-05-20T07:32:03;4.30;;;3.90;;
21438;SDS011;10880;50.302;18.736;2023-05-20T07:40:12;4.53;;;3.90;;
21438;SDS011;10880;50.302;18.736;2023-05-20T07:42:38;6.70;;;5.10;;
21438;SDS011;10880;50.302;18.736;2023-05-20T07:45:04;5.07;;;4.50;;
21438;SDS011;10880;50.302;18.736;2023-05-20T07:47:32;4.50;;;3.73;;
21438;SDS011;10880;50.302;18.736;2023-05-20T07:50:04;5.07;;;4.57;;
21438;SDS011;10880;50.302;18.736;2023-05-20T07:52:38;5.57;;;4.70;;
21438;SDS011;10880;50.302;18.736;2023-05-20T07:55:06;4.10;;;3.70;;
21438;SDS011;10880;50.302;18.736;2023-05-20T07:57:44;5.23;;;4.40;;
21438;SDS011;10880;50.302;18.736;2023-05-20T08:00:10;5.27;;;4.40;;
21438;SDS011;10880;50.302;18.736;2023-05-20T08:02:43;7.60;;;6.10;;
21438;SDS011;10880;50.302;18.736;2023-05-20T08:05:12;8.23;;;6.30;;
21438;SDS011;10880;50.302;18.736;2023-05-20T08:07:44;6.43;;;5.63;;
21438;SDS011;10880;50.302;18.736;2023-05-20T08:10:15;6.10;;;4.93;;
21438;SDS011;10880;50.302;18.736;2023-05-20T08:12:45;5.43;;;4.73;;
21438;SDS011;10880;50.302;18.736;2023-05-20T08:15:11;5.50;;;4.90;;
21438;SDS011;10880;50.302;18.736;2023-05-20T08:17:38;6.37;;;5.50;;
21438;SDS011;10880;50.302;18.736;2023-05-20T08:20:08;6.40;;;4.67;;
21438;SDS011;10880;50.302;18.736;2023-05-20T08:22:37;5.07;;;4.57;;
21438;SDS011;10880;50.302;18.736;2023-05-20T08:25:05;4.50;;;4.03;;
21438;SDS011;10880;50.302;18.736;2023-05-20T08:27:40;4.33;;;3.77;;
21438;SDS011;10880;50.302;18.736;2023-05-20T08:30:07;6.37;;;4.80;;
21438;SDS011;10880;50.302;18.736;2023-05-20T08:32:35;4.50;;;4.00;;
21438;SDS011;10880;50.302;18.736;2023-05-20T08:35:02;4.07;;;3.63;;
21438;SDS011;10880;50.302;18.736;2023-05-20T08:37:29;3.77;;;3.20;;
21438;SDS011;10880;50.302;18.736;2023-05-20T08:39:55;5.27;;;4.23;;
21438;SDS011;10880;50.302;18.736;2023-05-20T08:42:23;6.90;;;5.03;;
21438;SDS011;10880;50.302;18.736;2023-05-20T08:44:53;6.47;;;5.20;;
21438;SDS011;10880;50.302;18.736;2023-05-20T08:47:23;4.73;;;4.20;;
21438;SDS011;10880;50.302;18.736;2023-05-20T08:49:50;8.87;;;5.50;;
21438;SDS011;10880;50.302;18.736;2023-05-20T08:52:18;5.97;;;5.23;;
21438;SDS011;10880;50.302;18.736;2023-05-20T08:54:47;4.80;;;4.30;;
21438;SDS011;10880;50.302;18.736;2023-05-20T08:57:14;5.10;;;4.43;;
21438;SDS011;10880;50.302;18.736;2023-05-20T08:59:44;7.73;;;5.90;;
21438;SDS011;10880;50.302;18.736;2023-05-20T09:02:16;6.23;;;5.10;;
21438;SDS011;10880;50.302;18.736;2023-05-20T09:04:42;7.53;;;5.73;;
21438;SDS011;10880;50.302;18.736;2023-05-20T09:07:08;7.20;;;5.93;;
21438;SDS011;10880;50.302;18.736;2023-05-20T09:09:35;6.27;;;5.33;;
21438;SDS011;10880;50.302;18.736;2023-05-20T09:12:02;6.90;;;5.57;;
21438;SDS011;10880;50.302;18.736;2023-05-20T09:14:29;8.20;;;6.43;;
21438;SDS011;10880;50.302;18.736;2023-05-20T09:16:56;9.37;;;7.30;;
21438;SDS011;10880;50.302;18.736;2023-05-20T09:19:22;7.93;;;6.50;;
21438;SDS011;10880;50.302;18.736;2023-05-20T09:21:53;7.97;;;6.37;;
21438;SDS011;10880;50.302;18.736;2023-05-20T09:24:24;7.53;;;6.33;;
21438;SDS011;10880;50.302;18.736;2023-05-20T09:26:52;9.20;;;6.83;;
21438;SDS011;10880;50.302;18.736;2023-05-20T09:29:20;6.97;;;5.70;;
21438;SDS011;10880;50.302;18.736;2023-05-20T09:31:46;6.43;;;5.20;;
21438;SDS011;10880;50.302;18.736;2023-05-20T09:34:13;5.97;;;4.90;;
21438;SDS011;10880;50.302;18.736;2023-05-20T09:36:43;5.87;;;4.97;;
21438;SDS011;10880;50.302;18.736;2023-05-20T09:39:18;9.13;;;7.43;;
21438;SDS011;10880;50.302;18.736;2023-05-20T09:42:01;9.27;;;7.00;;
21438;SDS011;10880;50.302;18.736;2023-05-20T09:44:32;6.97;;;5.87;;
21438;SDS011;10880;50.302;18.736;2023-05-20T09:46:59;5.80;;;5.20;;
21438;SDS011;10880;50.302;18.736;2023-05-20T09:49:27;7.20;;;4.93;;
21438;SDS011;10880;50.302;18.736;2023-05-20T09:51:55;6.20;;;5.40;;
21438;SDS011;10880;50.302;18.736;2023-05-20T09:54:23;6.27;;;5.27;;
21438;SDS011;10880;50.302;18.736;2023-05-20T09:56:52;7.70;;;6.07;;
21438;SDS011;10880;50.302;18.736;2023-05-20T09:59:23;8.43;;;6.60;;
21438;SDS011;10880;50.302;18.736;2023-05-20T10:01:52;6.97;;;5.87;;
21438;SDS011;10880;50.302;18.736;2023-05-20T10:04:18;6.90;;;5.77;;
21438;SDS011;10880;50.302;18.736;2023-05-20T10:12:21;12.80;;;9.90;;
21438;SDS011;10880;50.302;18.736;2023-05-20T10:15:03;8.50;;;6.97;;
21438;SDS011;10880;50.302;18.736;2023-05-20T10:20:50;7.70;;;6.83;;
21438;SDS011;10880;50.302;18.736;2023-05-20T10:23:29;12.60;;;9.67;;
21438;SDS011;10880;50.302;18.736;2023-05-20T10:25:57;12.73;;;9.37;;
21438;SDS011;10880;50.302;18.736;2023-05-20T10:28:34;13.17;;;8.60;;
21438;SDS011;10880;50.302;18.736;2023-05-20T10:31:01;11.73;;;8.60;;
21438;SDS011;10880;50.302;18.736;2023-05-20T10:33:29;8.97;;;7.17;;
21438;SDS011;10880;50.302;18.736;2023-05-20T10:36:05;7.40;;;6.37;;
21438;SDS011;10880;50.302;18.736;2023-05-20T10:38:31;15.47;;;9.93;;
21438;SDS011;10880;50.302;18.736;2023-05-20T10:41:08;12.50;;;9.10;;
21438;SDS011;10880;50.302;18.736;2023-05-20T10:43:37;9.70;;;8.10;;
21438;SDS011;10880;50.302;18.736;2023-05-20T10:46:06;10.73;;;8.33;;
21438;SDS011;10880;50.302;18.736;2023-05-20T10:48:45;9.87;;;8.00;;
21438;SDS011;10880;50.302;18.736;2023-05-20T10:51:12;10.80;;;8.37;;
21438;SDS011;10880;50.302;18.736;2023-05-20T10:53:41;11.47;;;9.40;;
21438;SDS011;10880;50.302;18.736;2023-05-20T10:56:16;11.17;;;8.80;;
21438;SDS011;10880;50.302;18.736;2023-05-20T10:58:47;14.57;;;10.40;;
21438;SDS011;10880;50.302;18.736;2023-05-20T11:01:14;13.33;;;10.20;;
21438;SDS011;10880;50.302;18.736;2023-05-20T11:03:46;9.17;;;7.50;;
21438;SDS011;10880;50.302;18.736;2023-05-20T11:06:15;8.40;;;6.70;;
21438;SDS011;10880;50.302;18.736;2023-05-20T11:08:42;8.37;;;6.80;;
21438;SDS011;10880;50.302;18.736;2023-05-20T11:11:10;7.93;;;7.10;;
21438;SDS011;10880;50.302;18.736;2023-05-20T11:13:37;16.93;;;9.93;;
21438;SDS011;10880;50.302;18.736;2023-05-20T11:16:03;9.53;;;7.47;;
21438;SDS011;10880;50.302;18.736;2023-05-20T11:18:30;10.20;;;7.90;;
21438;SDS011;10880;50.302;18.736;2023-05-20T11:20:59;8.23;;;6.60;;
21438;SDS011;10880;50.302;18.736;2023-05-20T11:23:27;8.90;;;7.03;;
21438;SDS011;10880;50.302;18.736;2023-05-20T11:25:55;9.80;;;7.73;;
21438;SDS011;10880;50.302;18.736;2023-05-20T11:28:22;11.83;;;9.20;;
21438;SDS011;10880;50.302;18.736;2023-05-20T11:30:52;10.83;;;9.57;;
21438;SDS011;10880;50.302;18.736;2023-05-20T11:33:20;10.10;;;7.87;;
21438;SDS011;10880;50.302;18.736;2023-05-20T11:35:51;7.97;;;6.83;;
21438;SDS011;10880;50.302;18.736;2023-05-20T11:38:19;8.43;;;7.03;;
21438;SDS011;10880;50.302;18.736;2023-05-20T11:40:49;11.97;;;9.53;;
21438;SDS011;10880;50.302;18.736;2023-05-20T11:43:18;10.33;;;8.90;;
21438;SDS011;10880;50.302;18.736;2023-05-20T11:45:54;11.30;;;9.20;;
21438;SDS011;10880;50.302;18.736;2023-05-20T11:48:23;14.97;;;9.00;;
21438;SDS011;10880;50.302;18.736;2023-05-20T11:50:51;10.70;;;9.07;;
21438;SDS011;10880;50.302;18.736;2023-05-20T11:53:19;9.03;;;7.57;;
21438;SDS011;10880;50.302;18.736;2023-05-20T11:58:22;16.33;;;11.93;;
21438;SDS011;10880;50.302;18.736;2023-05-20T12:00:53;10.57;;;8.47;;
21438;SDS011;10880;50.302;18.736;2023-05-20T12:03:20;9.83;;;8.67;;
21438;SDS011;10880;50.302;18.736;2023-05-20T12:05:51;12.20;;;9.07;;
21438;SDS011;10880;50.302;18.736;2023-05-20T12:08:17;10.13;;;8.10;;
21438;SDS011;10880;50.302;18.736;2023-05-20T12:10:43;10.83;;;8.50;;
21438;SDS011;10880;50.302;18.736;2023-05-20T12:13:09;12.13;;;9.17;;
21438;SDS011;10880;50.302;18.736;2023-05-20T12:15:38;9.97;;;8.50;;
21438;SDS011;10880;50.302;18.736;2023-05-20T12:18:04;8.43;;;6.80;;
21438;SDS011;10880;50.302;18.736;2023-05-20T12:20:31;10.73;;;9.03;;
21438;SDS011;10880;50.302;18.736;2023-05-20T12:22:59;10.17;;;8.20;;
21438;SDS011;10880;50.302;18.736;2023-05-20T12:25:25;11.47;;;9.57;;
21438;SDS011;10880;50.302;18.736;2023-05-20T12:27:54;11.60;;;9.67;;
21438;SDS011;10880;50.302;18.736;2023-05-20T12:30:21;9.13;;;7.77;;
21438;SDS011;10880;50.302;18.736;2023-05-20T12:32:48;10.07;;;8.40;;
21438;SDS011;10880;50.302;18.736;2023-05-20T12:35:16;15.00;;;10.80;;
21438;SDS011;10880;50.302;18.736;2023-05-20T12:37:43;11.53;;;8.90;;
21438;SDS011;10880;50.302;18.736;2023-05-20T12:40:10;10.10;;;7.87;;
21438;SDS011;10880;50.302;18.736;2023-05-20T12:42:38;10.33;;;7.93;;
21438;SDS011;10880;50.302;18.736;2023-05-20T12:45:06;11.70;;;9.50;;
21438;SDS011;10880;50.302;18.736;2023-05-20T12:47:33;16.97;;;12.27;;
21438;SDS011;10880;50.302;18.736;2023-05-20T12:50:00;12.00;;;9.60;;
21438;SDS011;10880;50.302;18.736;2023-05-20T12:52:28;13.13;;;9.97;;
21438;SDS011;10880;50.302;18.736;2023-05-20T12:54:54;11.17;;;9.10;;
21438;SDS011;10880;50.302;18.736;2023-05-20T12:57:21;11.93;;;9.70;;
21438;SDS011;10880;50.302;18.736;2023-05-20T12:59:59;10.27;;;8.63;;
21438;SDS011;10880;50.302;18.736;2023-05-20T13:02:25;10.40;;;8.40;;
21438;SDS011;10880;50.302;18.736;2023-05-20T13:04:52;8.10;;;6.80;;
21438;SDS011;10880;50.302;18.736;2023-05-20T13:07:20;9.20;;;7.63;;
21438;SDS011;10880;50.302;18.736;2023-05-20T13:09:47;13.13;;;9.60;;
21438;SDS011;10880;50.302;18.736;2023-05-20T13:12:13;9.60;;;8.43;;
21438;SDS011;10880;50.302;18.736;2023-05-20T13:14:39;9.63;;;8.13;;
21438;SDS011;10880;50.302;18.736;2023-05-20T13:17:05;8.13;;;6.77;;
21438;SDS011;10880;50.302;18.736;2023-05-20T13:19:31;9.23;;;7.27;;
21438;SDS011;10880;50.302;18.736;2023-05-20T13:21:57;11.93;;;8.87;;
21438;SDS011;10880;50.302;18.736;2023-05-20T13:24:24;10.23;;;8.10;;
21438;SDS011;10880;50.302;18.736;2023-05-20T13:26:51;8.57;;;6.80;;
21438;SDS011;10880;50.302;18.736;2023-05-20T13:29:17;11.77;;;9.13;;
21438;SDS011;10880;50.302;18.736;2023-05-20T13:31:43;11.87;;;9.13;;
21438;SDS011;10880;50.302;18.736;2023-05-20T13:34:09;12.03;;;9.20;;
21438;SDS011;10880;50.302;18.736;2023-05-20T13:36:35;10.83;;;8.10;;
21438;SDS011;10880;50.302;18.736;2023-05-20T13:39:01;9.10;;;7.83;;
21438;SDS011;10880;50.302;18.736;2023-05-20T13:41:30;9.10;;;7.33;;
21438;SDS011;10880;50.302;18.736;2023-05-20T13:43:57;6.83;;;6.13;;
21438;SDS011;10880;50.302;18.736;2023-05-20T13:46:26;6.23;;;5.33;;
21438;SDS011;10880;50.302;18.736;2023-05-20T13:49:03;8.13;;;7.03;;
21438;SDS011;10880;50.302;18.736;2023-05-20T13:51:30;7.87;;;6.40;;
21438;SDS011;10880;50.302;18.736;2023-05-20T13:53:57;7.60;;;6.30;;
21438;SDS011;10880;50.302;18.736;2023-05-20T13:56:24;6.90;;;5.50;;
21438;SDS011;10880;50.302;18.736;2023-05-20T13:58:51;7.20;;;6.07;;
21438;SDS011;10880;50.302;18.736;2023-05-20T14:01:18;7.50;;;5.90;;
21438;SDS011;10880;50.302;18.736;2023-05-20T14:06:52;7.50;;;6.20;;
21438;SDS011;10880;50.302;18.736;2023-05-20T14:09:19;7.87;;;6.90;;
21438;SDS011;10880;50.302;18.736;2023-05-20T14:11:46;10.20;;;7.97;;
21438;SDS011;10880;50.302;18.736;2023-05-20T14:14:12;10.00;;;8.17;;
21438;SDS011;10880;50.302;18.736;2023-05-20T14:22:52;9.50;;;8.20;;
21438;SDS011;10880;50.302;18.736;2023-05-20T14:25:19;9.63;;;7.77;;
21438;SDS011;10880;50.302;18.736;2023-05-20T14:27:48;10.20;;;8.40;;
21438;SDS011;10880;50.302;18.736;2023-05-20T14:30:19;7.93;;;6.93;;
21438;SDS011;10880;50.302;18.736;2023-05-20T14:32:46;8.27;;;6.50;;
21438;SDS011;10880;50.302;18.736;2023-05-20T14:35:13;8.47;;;6.80;;
21438;SDS011;10880;50.302;18.736;2023-05-20T14:37:39;9.40;;;7.77;;
21438;SDS011;10880;50.302;18.736;2023-05-20T14:40:06;9.93;;;7.47;;
21438;SDS011;10880;50.302;18.736;2023-05-20T14:42:32;13.43;;;10.37;;
21438;SDS011;10880;50.302;18.736;2023-05-20T14:45:00;9.27;;;7.80;;
21438;SDS011;10880;50.302;18.736;2023-05-20T14:47:31;8.63;;;6.10;;
21438;SDS011;10880;50.302;18.736;2023-05-20T14:50:00;8.80;;;6.50;;
21438;SDS011;10880;50.302;18.736;2023-05-20T14:52:32;7.13;;;6.07;;
21438;SDS011;10880;50.302;18.736;2023-05-20T14:55:00;8.23;;;6.40;;
21438;SDS011;10880;50.302;18.736;2023-05-20T14:57:29;9.57;;;6.83;;
21438;SDS011;10880;50.302;18.736;2023-05-20T14:59:56;7.53;;;6.63;;
21438;SDS011;10880;50.302;18.736;2023-05-20T15:02:24;8.00;;;6.63;;
21438;SDS011;10880;50.302;18.736;2023-05-20T15:04:51;7.93;;;6.90;;
21438;SDS011;10880;50.302;18.736;2023-05-20T15:07:20;10.80;;;9.00;;
21438;SDS011;10880;50.302;18.736;2023-05-20T15:09:48;10.37;;;7.63;;
21438;SDS011;10880;50.302;18.736;2023-05-20T15:12:16;9.77;;;6.50;;
21438;SDS011;10880;50.302;18.736;2023-05-20T15:14:43;5.93;;;5.33;;
21438;SDS011;10880;50.302;18.736;2023-05-20T15:17:09;6.97;;;6.27;;
21438;SDS011;10880;50.302;18.736;2023-05-20T15:19:36;6.93;;;6.23;;
21438;SDS011;10880;50.302;18.736;2023-05-20T15:22:04;11.67;;;9.57;;
21438;SDS011;10880;50.302;18.736;2023-05-20T15:24:30;8.20;;;6.87;;
21438;SDS011;10880;50.302;18.736;2023-05-20T15:26:56;12.07;;;8.60;;
21438;SDS011;10880;50.302;18.736;2023-05-20T15:29:23;9.03;;;8.00;;
21438;SDS011;10880;50.302;18.736;2023-05-20T15:31:49;9.27;;;7.90;;
21438;SDS011;10880;50.302;18.736;2023-05-20T15:34:16;8.17;;;6.30;;
21438;SDS011;10880;50.302;18.736;2023-05-20T15:36:44;7.33;;;6.07;;
21438;SDS011;10880;50.302;18.736;2023-05-20T15:39:11;9.23;;;6.83;;
21438;SDS011;10880;50.302;18.736;2023-05-20T15:41:37;6.90;;;5.93;;
21438;SDS011;10880;50.302;18.736;2023-05-20T15:44:08;8.50;;;6.00;;
21438;SDS011;10880;50.302;18.736;2023-05-20T15:46:34;7.57;;;6.23;;
21438;SDS011;10880;50.302;18.736;2023-05-20T15:49:02;5.87;;;4.97;;
21438;SDS011;10880;50.302;18.736;2023-05-20T15:51:34;6.17;;;5.03;;
21438;SDS011;10880;50.302;18.736;2023-05-20T15:54:00;6.60;;;5.57;;
21438;SDS011;10880;50.302;18.736;2023-05-20T15:56:27;6.60;;;5.97;;
21438;SDS011;10880;50.302;18.736;2023-05-20T15:58:53;7.53;;;6.07;;
21438;SDS011;10880;50.302;18.736;2023-05-20T16:01:23;6.37;;;5.60;;
21438;SDS011;10880;50.302;18.736;2023-05-20T16:03:52;9.23;;;7.57;;
21438;SDS011;10880;50.302;18.736;2023-05-20T16:06:18;9.23;;;7.40;;
21438;SDS011;10880;50.302;18.736;2023-05-20T16:08:44;6.77;;;6.03;;
21438;SDS011;10880;50.302;18.736;2023-05-20T16:11:12;6.27;;;5.67;;
21438;SDS011;10880;50.302;18.736;2023-05-20T16:13:38;6.93;;;6.23;;
21438;SDS011;10880;50.302;18.736;2023-05-20T16:16:04;7.23;;;5.93;;
21438;SDS011;10880;50.302;18.736;2023-05-20T16:18:30;8.37;;;6.53;;
21438;SDS011;10880;50.302;18.736;2023-05-20T16:20:58;6.47;;;5.73;;
21438;SDS011;10880;50.302;18.736;2023-05-20T16:23:24;6.33;;;5.50;;
21438;SDS011;10880;50.302;18.736;2023-05-20T16:25:51;7.23;;;6.20;;
21438;SDS011;10880;50.302;18.736;2023-05-20T16:28:17;6.60;;;5.50;;
21438;SDS011;10880;50.302;18.736;2023-05-20T16:30:43;6.57;;;5.80;;
21438;SDS011;10880;50.302;18.736;2023-05-20T16:33:09;5.47;;;4.77;;
21438;SDS011;10880;50.302;18.736;2023-05-20T17:03:42;7.27;;;5.93;;
21438;SDS011;10880;50.302;18.736;2023-05-20T17:06:08;7.80;;;5.70;;
21438;SDS011;10880;50.302;18.736;2023-05-20T17:08:34;6.03;;;5.40;;
21438;SDS011;10880;50.302;18.736;2023-05-20T17:11:02;6.50;;;5.57;;
21438;SDS011;10880;50.302;18.736;2023-05-20T17:13:28;6.40;;;5.70;;
21438;SDS011;10880;50.302;18.736;2023-05-20T17:15:54;5.07;;;4.47;;
21438;SDS011;10880;50.302;18.736;2023-05-20T17:18:20;6.20;;;5.13;;
21438;SDS011;10880;50.302;18.736;2023-05-20T17:20:46;5.97;;;5.37;;
21438;SDS011;10880;50.302;18.736;2023-05-20T17:23:12;5.70;;;5.10;;
21438;SDS011;10880;50.302;18.736;2023-05-20T17:25:39;5.73;;;5.10;;
21438;SDS011;10880;50.302;18.736;2023-05-20T17:28:05;5.13;;;4.50;;
21438;SDS011;10880;50.302;18.736;2023-05-20T17:30:31;5.47;;;4.60;;
21438;SDS011;10880;50.302;18.736;2023-05-20T17:32:57;7.23;;;5.97;;
21438;SDS011;10880;50.302;18.736;2023-05-20T17:35:23;6.33;;;5.20;;
21438;SDS011;10880;50.302;18.736;2023-05-20T17:37:52;6.30;;;5.10;;
21438;SDS011;10880;50.302;18.736;2023-05-20T17:40:19;8.07;;;6.73;;
21438;SDS011;10880;50.302;18.736;2023-05-20T17:42:45;5.67;;;5.07;;
21438;SDS011;10880;50.302;18.736;2023-05-20T17:45:15;8.77;;;7.07;;
21438;SDS011;10880;50.302;18.736;2023-05-20T17:47:41;7.13;;;6.37;;
21438;SDS011;10880;50.302;18.736;2023-05-20T17:50:07;5.97;;;5.37;;
21438;SDS011;10880;50.302;18.736;2023-05-20T17:52:37;5.03;;;4.40;;